Time;durP1;ratioP1;P1;durP2;ratioP2;P2;SDS_P1;SDS_P2;PMS_P1;PMS_P2;Temp;Humidity;BMP_temperature;BMP_pressure;BME280_temperature;BME280_humidity;BME280_pressure;Samples;Min_cycle;Max_cycle;Signal;HPM_P1;HPM_P2
2021/12/15 00:01:42;;;;;;;0.00;0.00;;;5.10;99.90;;;;;;5096424;28;20398;-51
2021/12/15 00:04:08;;;;;;;28.75;3.20;;;5.20;99.90;;;;;;5096526;28;20178;-51
2021/12/15 00:06:35;;;;;;;2.25;0.77;;;5.10;99.90;;;;;;5096689;28;20024;-48
2021/12/15 00:09:03;;;;;;;0.10;0.10;;;5.10;99.90;;;;;;5096621;28;20467;-50
2021/12/15 00:11:35;;;;;;;0.00;0.00;;;5.00;99.90;;;;;;5096544;28;20042;-53
2021/12/15 00:14:07;;;;;;;0.20;0.20;;;5.00;99.90;;;;;;5096222;28;20390;-49
2021/12/15 00:16:34;;;;;;;2.30;1.77;;;4.90;99.90;;;;;;5096269;28;20107;-50
2021/12/15 00:19:00;;;;;;;0.00;0.00;;;4.90;99.90;;;;;;5096447;28;20485;-46
2021/12/15 00:21:27;;;;;;;0.00;0.00;;;4.90;99.90;;;;;;5096174;28;20103;-46
2021/12/15 00:23:53;;;;;;;0.35;0.35;;;4.90;99.90;;;;;;5095958;28;20390;-49
2021/12/15 00:26:20;;;;;;;0.63;0.63;;;5.00;99.90;;;;;;5096307;28;20103;-49
2021/12/15 00:28:47;;;;;;;0.00;0.00;;;4.90;99.90;;;;;;5096338;28;20028;-49
2021/12/15 00:31:12;;;;;;;0.00;0.00;;;4.90;99.90;;;;;;5087903;28;20024;-49
2021/12/15 00:33:40;;;;;;;0.00;0.00;;;4.80;99.90;;;;;;5095993;28;20038;-53
2021/12/15 00:36:06;;;;;;;3.53;3.30;;;4.80;99.90;;;;;;5096136;28;20032;-49
2021/12/15 00:38:32;;;;;;;0.00;0.00;;;4.80;99.90;;;;;;5095772;28;20051;-48
2021/12/15 00:40:59;;;;;;;0.43;0.43;;;4.90;99.90;;;;;;5095768;28;20436;-52
2021/12/15 00:43:25;;;;;;;0.00;0.00;;;4.80;99.90;;;;;;5095993;28;20043;-48
2021/12/15 00:45:51;;;;;;;0.00;0.00;;;4.80;99.90;;;;;;5095697;28;20390;-49
2021/12/15 00:48:17;;;;;;;0.45;0.30;;;5.00;99.90;;;;;;5077586;28;20098;-49
2021/12/15 00:50:45;;;;;;;0.45;0.45;;;5.10;99.90;;;;;;5095566;28;20024;-47
2021/12/15 00:53:11;;;;;;;0.00;0.00;;;5.10;99.90;;;;;;5096094;28;20031;-47
2021/12/15 00:55:38;;;;;;;0.00;0.00;;;5.10;99.90;;;;;;5095558;28;20047;-50
2021/12/15 00:58:05;;;;;;;0.00;0.00;;;5.20;99.90;;;;;;5095866;28;20373;-50
2021/12/15 01:00:41;;;;;;;0.10;0.10;;;5.20;99.90;;;;;;5095415;28;20024;-49
2021/12/15 01:03:07;;;;;;;0.00;0.00;;;5.20;99.90;;;;;;5095385;28;20058;-48
2021/12/15 01:05:37;;;;;;;0.00;0.00;;;5.30;99.90;;;;;;5095154;28;20126;-48
2021/12/15 01:08:06;;;;;;;0.00;0.00;;;5.40;99.90;;;;;;5095534;28;20024;-46
2021/12/15 01:21:32;;;;;;;0.43;0.43;;;5.00;99.90;;;;;;5095075;28;20023;-51
2021/12/15 01:23:58;;;;;;;0.43;0.43;;;5.10;99.90;;;;;;5095204;28;20044;-46
2021/12/15 01:26:24;;;;;;;0.20;0.20;;;5.00;99.90;;;;;;5094829;28;20028;-49
2021/12/15 01:28:50;;;;;;;0.00;0.00;;;5.10;99.90;;;;;;5095399;28;20020;-50
2021/12/15 01:31:15;;;;;;;0.38;0.30;;;5.10;99.90;;;;;;5095178;28;20035;-49
2021/12/15 01:33:42;;;;;;;0.00;0.00;;;5.20;99.90;;;;;;5094825;28;20035;-49
2021/12/15 01:36:09;;;;;;;0.00;0.00;;;5.30;99.90;;;;;;5095093;28;20028;-48
2021/12/15 01:38:38;;;;;;;0.00;0.00;;;5.30;99.90;;;;;;5094873;28;20035;-48
2021/12/15 01:41:19;;;;;;;0.10;0.10;;;5.40;99.90;;;;;;5094632;28;20020;-47
2021/12/15 01:46:57;;;;;;;0.00;0.00;;;5.60;99.90;;;;;;5065422;28;20040;-48
2021/12/15 01:49:22;;;;;;;0.00;0.00;;;5.60;99.90;;;;;;5094651;28;20024;-51
2021/12/15 01:51:48;;;;;;;0.00;0.00;;;5.70;99.90;;;;;;5094339;28;20026;-49
2021/12/15 01:54:15;;;;;;;0.00;0.00;;;5.60;99.90;;;;;;5094445;28;20051;-48
2021/12/15 01:56:41;;;;;;;0.00;0.00;;;5.70;99.90;;;;;;5093962;28;20031;-52
2021/12/15 01:59:09;;;;;;;0.93;0.28;;;5.70;99.90;;;;;;5094507;28;20032;-50
2021/12/15 02:01:34;;;;;;;0.00;0.00;;;5.60;99.90;;;;;;5094476;28;20020;-49
2021/12/15 02:04:00;;;;;;;0.00;0.00;;;5.60;99.90;;;;;;5094169;28;20052;-47
2021/12/15 02:06:27;;;;;;;2.85;1.65;;;5.50;99.90;;;;;;5094115;28;20028;-47
2021/12/15 02:08:52;;;;;;;0.00;0.00;;;5.60;99.90;;;;;;5094358;28;20102;-51
2021/12/15 02:11:19;;;;;;;0.00;0.00;;;5.70;99.90;;;;;;5094407;28;20020;-47
2021/12/15 02:13:45;;;;;;;0.00;0.00;;;5.70;99.90;;;;;;5093979;28;20046;-49
2021/12/15 02:16:11;;;;;;;0.00;0.00;;;5.70;99.90;;;;;;5094037;28;20028;-49
2021/12/15 02:18:41;;;;;;;0.00;0.00;;;5.70;99.90;;;;;;5094248;28;20084;-51
2021/12/15 02:21:17;;;;;;;0.00;0.00;;;5.70;99.90;;;;;;5094556;28;20030;-52
2021/12/15 02:23:51;;;;;;;0.00;0.00;;;5.70;99.90;;;;;;5075985;28;20042;-52
2021/12/15 02:26:25;;;;;;;0.00;0.00;;;5.70;99.90;;;;;;5093795;28;20035;-49
2021/12/15 02:28:55;;;;;;;0.00;0.00;;;5.60;99.90;;;;;;5093834;28;20547;-51
2021/12/15 02:34:57;;;;;;;0.32;0.32;;;5.50;99.90;;;;;;5094083;28;20032;-49
2021/12/15 02:37:20;;;;;;;0.00;0.00;;;5.40;99.90;;;;;;5086267;28;20040;-49
2021/12/15 02:39:56;;;;;;;0.00;0.00;;;5.30;99.90;;;;;;5093622;28;20054;-48
2021/12/15 02:42:25;;;;;;;0.00;0.00;;;5.30;99.90;;;;;;5093575;28;20032;-51
2021/12/15 02:44:50;;;;;;;1.10;1.10;;;5.40;99.90;;;;;;5093553;28;20016;-52
2021/12/15 02:47:21;;;;;;;0.28;0.28;;;5.40;99.90;;;;;;5093515;28;20459;-50
2021/12/15 02:49:50;;;;;;;0.00;0.00;;;5.40;99.90;;;;;;5093859;28;20106;-49
2021/12/15 02:52:16;;;;;;;0.00;0.00;;;5.40;99.90;;;;;;5094002;28;20024;-50
2021/12/15 02:54:42;;;;;;;0.00;0.00;;;5.50;99.90;;;;;;5093503;28;20020;-52
2021/12/15 02:57:12;;;;;;;0.00;0.00;;;5.60;99.90;;;;;;5094045;28;20489;-50
2021/12/15 02:59:58;;;;;;;0.00;0.00;;;5.60;99.90;;;;;;5093688;28;20024;-49
2021/12/15 03:03:11;;;;;;;0.00;0.00;;;5.50;99.90;;;;;;5093866;28;20055;-47
2021/12/15 03:05:43;;;;;;;0.00;0.00;;;5.70;99.90;;;;;;5093620;28;20155;-47
2021/12/15 03:08:20;;;;;;;0.00;0.00;;;5.70;99.90;;;;;;5096024;28;20108;-48
2021/12/15 03:16:18;;;;;;;0.20;0.20;;;5.60;99.90;;;;;;5097782;28;20039;-51
2021/12/15 03:18:44;;;;;;;0.00;0.00;;;5.60;99.90;;;;;;5097674;28;20027;-49
2021/12/15 03:21:25;;;;;;;0.25;0.25;;;5.50;99.90;;;;;;5097610;28;20016;-49
2021/12/15 03:23:55;;;;;;;0.90;0.65;;;5.50;99.90;;;;;;5097591;28;20039;-47
2021/12/15 03:26:33;;;;;;;0.85;0.70;;;5.30;99.90;;;;;;5078970;28;20032;-50
2021/12/15 03:37:20;;;;;;;0.00;0.00;;;5.20;99.90;;;;;;5097406;28;20067;-49
2021/12/15 03:39:47;;;;;;;17.38;1.75;;;5.20;99.90;;;;;;5097063;28;20070;-53
2021/12/15 03:42:21;;;;;;;1.85;1.30;;;5.20;99.90;;;;;;5097174;28;20035;-49
2021/12/15 03:44:48;;;;;;;0.17;0.17;;;5.20;99.90;;;;;;5096988;28;20028;-48
2021/12/15 03:47:19;;;;;;;0.85;0.77;;;5.10;99.90;;;;;;5078794;28;20025;-47
2021/12/15 03:49:45;;;;;;;;;;;5.00;99.90;;;;;;5061555;28;20095;-49
2021/12/15 03:52:12;;;;;;;0.00;0.00;;;5.00;99.90;;;;;;5066550;28;20351;-51
2021/12/15 03:54:38;;;;;;;0.10;0.10;;;5.00;99.90;;;;;;5056946;28;20040;-49
2021/12/15 03:57:03;;;;;;;0.65;0.65;;;4.90;99.90;;;;;;5073492;28;20044;-49
2021/12/15 03:59:32;;;;;;;0.00;0.00;;;5.00;99.90;;;;;;5076227;28;20024;-51
2021/12/15 04:01:57;;;;;;;0.00;0.00;;;5.00;99.90;;;;;;5076453;28;20025;-50
2021/12/15 04:04:23;;;;;;;0.03;0.03;;;5.10;99.90;;;;;;5080947;28;20505;-49
2021/12/15 04:06:50;;;;;;;2.40;1.33;;;5.20;99.90;;;;;;5087398;28;20030;-48
2021/12/15 04:09:17;;;;;;;2.47;2.28;;;5.10;99.90;;;;;;5075927;28;20070;-50
2021/12/15 04:11:44;;;;;;;2.40;1.08;;;5.10;99.90;;;;;;5076276;28;20019;-52
2021/12/15 04:14:22;;;;;;;0.63;0.22;;;5.10;99.90;;;;;;5076158;28;20443;-51
2021/12/15 04:17:05;;;;;;;0.75;0.38;;;5.00;99.90;;;;;;5075281;28;20371;-48
2021/12/15 04:19:35;;;;;;;0.00;0.00;;;4.90;99.90;;;;;;5066317;28;20057;-47
2021/12/15 04:22:03;;;;;;;1.27;1.20;;;4.90;99.90;;;;;;5069204;28;20037;-48
2021/12/15 04:24:29;;;;;;;0.00;0.00;;;4.90;99.90;;;;;;5054939;28;20035;-46
2021/12/15 04:26:58;;;;;;;0.20;0.17;;;4.80;99.90;;;;;;5063125;28;20125;-50
2021/12/15 04:29:26;;;;;;;0.00;0.00;;;5.00;99.90;;;;;;5076332;28;20024;-48
2021/12/15 04:32:34;;;;;;;0.45;0.45;;;5.00;99.90;;;;;;5083427;28;20066;-46
2021/12/15 04:35:00;;;;;;;0.00;0.00;;;5.00;99.90;;;;;;5095011;28;20092;-48
2021/12/15 04:37:26;;;;;;;1.35;1.33;;;4.90;99.90;;;;;;5096254;28;20020;-47
2021/12/15 04:39:51;;;;;;;0.00;0.00;;;5.00;99.90;;;;;;5081656;28;20025;-45
2021/12/15 04:42:19;;;;;;;1.90;1.75;;;4.90;99.90;;;;;;5075369;28;20037;-46
2021/12/15 04:44:46;;;;;;;0.00;0.00;;;4.90;99.90;;;;;;5075684;28;20020;-47
2021/12/15 04:47:12;;;;;;;0.52;0.52;;;4.80;99.90;;;;;;5073894;28;20029;-50
2021/12/15 04:49:47;;;;;;;0.17;0.17;;;4.90;99.90;;;;;;5074057;28;20028;-47
2021/12/15 04:52:19;;;;;;;0.08;0.08;;;4.90;99.90;;;;;;5074262;28;20028;-47
2021/12/15 04:54:45;;;;;;;1.08;0.98;;;4.90;99.90;;;;;;5074431;28;20464;-50
2021/12/15 04:57:12;;;;;;;2.97;1.45;;;4.90;99.90;;;;;;5068374;28;20078;-45
2021/12/15 04:59:39;;;;;;;0.00;0.00;;;4.90;99.90;;;;;;5075130;28;20031;-46
2021/12/15 05:02:06;;;;;;;0.00;0.00;;;5.10;99.90;;;;;;5055552;28;20498;-52
2021/12/15 05:04:32;;;;;;;0.00;0.00;;;5.20;99.90;;;;;;5046699;28;20423;-49
2021/12/15 05:06:58;;;;;;;0.00;0.00;;;5.20;99.90;;;;;;5071076;28;20036;-49
2021/12/15 05:09:24;;;;;;;0.00;0.00;;;5.20;99.90;;;;;;5072735;28;20028;-49
2021/12/15 05:11:50;;;;;;;0.00;0.00;;;5.20;99.90;;;;;;5073155;28;20024;-46
2021/12/15 05:14:18;;;;;;;0.00;0.00;;;5.20;99.90;;;;;;5072630;28;20038;-51
2021/12/15 05:16:45;;;;;;;0.00;0.00;;;5.20;99.90;;;;;;5073612;28;20043;-48
2021/12/15 05:19:11;;;;;;;0.00;0.00;;;5.30;99.90;;;;;;5074916;28;20024;-51
2021/12/15 05:21:37;;;;;;;0.00;0.00;;;5.30;99.90;;;;;;5074535;28;20028;-47
2021/12/15 05:24:12;;;;;;;0.00;0.00;;;5.20;99.90;;;;;;5074482;28;20090;-48
2021/12/15 05:26:38;;;;;;;2.13;1.98;;;5.30;99.90;;;;;;5074245;28;20020;-49
2021/12/15 05:29:04;;;;;;;0.20;0.20;;;5.30;99.90;;;;;;5074619;28;20059;-47
2021/12/15 05:31:30;;;;;;;0.98;0.68;;;5.30;99.90;;;;;;5073671;28;20020;-48
2021/12/15 05:33:56;;;;;;;0.00;0.00;;;5.30;99.90;;;;;;5074232;28;20029;-46
2021/12/15 05:36:22;;;;;;;7.00;1.15;;;5.60;99.90;;;;;;5074384;28;20108;-48
2021/12/15 05:38:48;;;;;;;0.10;0.10;;;5.60;99.90;;;;;;5074252;28;20372;-48
2021/12/15 05:41:15;;;;;;;0.00;0.00;;;5.50;99.90;;;;;;5073990;28;20016;-49
2021/12/15 05:43:42;;;;;;;0.00;0.00;;;5.50;99.90;;;;;;5074110;28;20086;-48
2021/12/15 05:46:07;;;;;;;0.00;0.00;;;5.50;99.90;;;;;;5074364;28;20057;-49
2021/12/15 05:48:33;;;;;;;0.00;0.00;;;5.50;99.90;;;;;;5074465;28;20446;-49
2021/12/15 05:50:59;;;;;;;0.00;0.00;;;5.50;99.90;;;;;;5074217;28;20031;-47
2021/12/15 05:53:25;;;;;;;0.00;0.00;;;5.50;99.90;;;;;;5073729;28;20056;-48
2021/12/15 05:55:52;;;;;;;0.00;0.00;;;5.60;99.90;;;;;;5074006;28;20031;-49
2021/12/15 05:58:18;;;;;;;0.00;0.00;;;5.60;99.90;;;;;;5073618;28;20104;-49
2021/12/15 06:00:46;;;;;;;0.00;0.00;;;5.70;99.90;;;;;;5073932;28;20056;-47
2021/12/15 06:03:12;;;;;;;0.00;0.00;;;5.70;99.90;;;;;;5073804;28;20028;-49
2021/12/15 06:05:38;;;;;;;0.00;0.00;;;5.80;99.90;;;;;;5094199;28;20191;-51
2021/12/15 06:08:06;;;;;;;0.00;0.00;;;5.80;99.90;;;;;;5093911;28;20028;-48
2021/12/15 06:10:35;;;;;;;0.00;0.00;;;5.80;99.90;;;;;;5093931;28;20035;-49
2021/12/15 06:13:02;;;;;;;0.00;0.00;;;5.80;99.90;;;;;;5093749;28;20024;-49
2021/12/15 06:15:29;;;;;;;0.13;0.13;;;5.90;99.90;;;;;;5093850;28;20034;-53
2021/12/15 06:18:00;;;;;;;0.00;0.00;;;5.90;99.90;;;;;;5093778;28;20485;-50
2021/12/15 06:20:27;;;;;;;0.17;0.17;;;5.90;99.90;;;;;;5093761;28;20032;-49
2021/12/15 06:22:55;;;;;;;0.00;0.00;;;5.80;99.90;;;;;;5093893;28;20028;-48
2021/12/15 06:25:22;;;;;;;0.00;0.00;;;5.90;99.90;;;;;;5093538;28;20403;-49
2021/12/15 06:27:48;;;;;;;0.00;0.00;;;5.80;99.90;;;;;;5093770;28;20035;-51
2021/12/15 06:30:14;;;;;;;0.45;0.45;;;5.80;99.90;;;;;;5093404;28;20028;-49
2021/12/15 06:32:40;;;;;;;0.00;0.00;;;5.80;99.90;;;;;;5093291;28;20051;-48
2021/12/15 06:35:06;;;;;;;0.20;0.20;;;5.70;99.90;;;;;;5093552;28;20020;-47
2021/12/15 06:37:34;;;;;;;0.00;0.00;;;5.80;99.90;;;;;;5087197;28;20032;-49
2021/12/15 06:40:00;;;;;;;0.00;0.00;;;5.80;99.90;;;;;;5088486;28;20035;-50
2021/12/15 06:42:25;;;;;;;0.00;0.00;;;5.80;99.90;;;;;;5083291;28;20098;-53
2021/12/15 06:44:51;;;;;;;0.00;0.00;;;5.80;99.90;;;;;;5093250;28;20374;-51
2021/12/15 07:00:46;;;;;;;0.00;0.00;;;5.80;99.90;;;;;;5081851;28;20121;-51
2021/12/15 07:03:13;;;;;;;0.00;0.00;;;5.70;99.90;;;;;;5077436;28;20094;-50
2021/12/15 07:05:40;;;;;;;0.00;0.00;;;5.70;99.90;;;;;;5074244;28;20457;-47
2021/12/15 07:08:08;;;;;;;0.00;0.00;;;5.80;99.90;;;;;;5093233;28;20046;-47
2021/12/15 07:10:37;;;;;;;0.10;0.10;;;5.80;99.90;;;;;;5092595;28;20103;-46
2021/12/15 07:13:04;;;;;;;0.08;0.08;;;5.80;99.90;;;;;;5092917;28;20021;-48
2021/12/15 07:15:32;;;;;;;0.00;0.00;;;5.70;99.90;;;;;;5091510;28;20078;-48
2021/12/15 07:18:03;;;;;;;0.00;0.00;;;5.70;99.90;;;;;;5089800;28;20032;-47
2021/12/15 07:23:06;;;;;;;1.15;0.57;;;5.70;99.90;;;;;;5072083;28;20036;-47
2021/12/15 07:25:32;;;;;;;0.00;0.00;;;5.80;99.90;;;;;;5072501;28;20028;-51
2021/12/15 07:27:58;;;;;;;0.00;0.00;;;5.80;99.90;;;;;;5072336;28;20388;-52
2021/12/15 07:30:26;;;;;;;0.00;0.00;;;5.90;99.90;;;;;;5072440;28;20528;-50
2021/12/15 07:32:52;;;;;;;0.00;0.00;;;5.90;99.90;;;;;;5072550;28;20047;-49
2021/12/15 07:35:19;;;;;;;0.00;0.00;;;5.90;99.90;;;;;;5072319;28;20484;-47
2021/12/15 07:37:44;;;;;;;0.00;0.00;;;6.00;99.90;;;;;;5072139;28;20107;-49
2021/12/15 07:40:18;;;;;;;0.00;0.00;;;5.90;99.90;;;;;;5072070;28;20032;-50
2021/12/15 07:42:56;;;;;;;0.20;0.20;;;6.00;99.90;;;;;;5072008;28;20037;-49
2021/12/15 07:45:24;;;;;;;0.00;0.00;;;6.00;99.90;;;;;;5072032;28;20024;-51
2021/12/15 07:47:56;;;;;;;0.00;0.00;;;6.00;99.90;;;;;;5072019;28;20035;-51
2021/12/15 07:50:23;;;;;;;0.00;0.00;;;6.00;99.90;;;;;;5054203;28;20463;-52
2021/12/15 07:52:50;;;;;;;0.00;0.00;;;6.10;99.90;;;;;;5071597;28;20025;-47
2021/12/15 07:55:17;;;;;;;0.00;0.00;;;6.00;99.90;;;;;;5056346;28;20039;-47
2021/12/15 07:57:43;;;;;;;0.00;0.00;;;6.10;99.90;;;;;;5075995;28;20040;-50
2021/12/15 08:00:11;;;;;;;0.85;0.85;;;6.00;99.90;;;;;;5075672;28;20383;-50
2021/12/15 08:02:36;;;;;;;0.00;0.00;;;6.00;99.90;;;;;;5075793;28;20084;-47
2021/12/15 08:05:03;;;;;;;0.00;0.00;;;6.10;99.90;;;;;;5075575;28;20055;-47
2021/12/15 08:07:28;;;;;;;0.00;0.00;;;6.10;99.90;;;;;;5075464;28;20086;-50
2021/12/15 08:09:54;;;;;;;0.00;0.00;;;6.20;99.90;;;;;;5075820;28;20383;-48
2021/12/15 08:12:20;;;;;;;0.00;0.00;;;6.20;99.90;;;;;;5075607;28;20081;-47
2021/12/15 08:14:46;;;;;;;0.90;0.90;;;6.10;99.90;;;;;;5075430;28;20021;-51
2021/12/15 08:17:11;;;;;;;0.30;0.30;;;6.00;99.90;;;;;;5075596;28;20025;-49
2021/12/15 08:19:37;;;;;;;0.17;0.17;;;5.90;99.90;;;;;;5075969;28;20431;-48
2021/12/15 08:22:03;;;;;;;0.30;0.30;;;6.00;99.90;;;;;;5075228;28;20028;-50
2021/12/15 08:24:29;;;;;;;0.00;0.00;;;6.10;99.90;;;;;;5075426;28;20128;-52
2021/12/15 08:26:54;;;;;;;0.00;0.00;;;6.00;99.90;;;;;;5075213;28;20113;-50
2021/12/15 08:29:20;;;;;;;0.00;0.00;;;6.20;99.90;;;;;;5075802;28;20024;-48
2021/12/15 08:31:46;;;;;;;0.00;0.00;;;6.20;99.90;;;;;;5075605;28;20020;-50
2021/12/15 08:34:12;;;;;;;0.00;0.00;;;6.30;99.90;;;;;;5075497;28;20041;-49
2021/12/15 08:36:39;;;;;;;0.00;0.00;;;6.30;99.90;;;;;;5075170;28;20020;-49
2021/12/15 08:39:06;;;;;;;0.00;0.00;;;6.30;99.90;;;;;;5074627;28;20024;-48
2021/12/15 08:41:32;;;;;;;0.00;0.00;;;6.40;99.90;;;;;;5075297;28;20024;-50
2021/12/15 08:43:58;;;;;;;0.00;0.00;;;6.50;99.90;;;;;;5057101;28;20437;-49
2021/12/15 08:46:31;;;;;;;0.00;0.00;;;6.60;99.90;;;;;;5075205;28;20024;-49
2021/12/15 08:48:58;;;;;;;0.00;0.00;;;6.70;99.90;;;;;;5075370;28;20528;-50
2021/12/15 08:51:27;;;;;;;0.10;0.10;;;6.70;99.90;;;;;;5074789;28;20020;-50
2021/12/15 08:53:59;;;;;;;0.43;0.43;;;6.70;99.90;;;;;;5074892;28;20051;-50
2021/12/15 08:56:25;;;;;;;0.00;0.00;;;6.70;99.90;;;;;;5074810;28;20032;-47
2021/12/15 08:58:52;;;;;;;0.00;0.00;;;6.80;99.90;;;;;;5074766;28;20523;-49
2021/12/15 09:01:18;;;;;;;0.00;0.00;;;6.70;99.90;;;;;;5074815;28;20116;-48
2021/12/15 09:03:44;;;;;;;0.00;0.00;;;6.70;99.90;;;;;;5074302;28;20123;-52
2021/12/15 09:06:12;;;;;;;0.00;0.00;;;6.80;99.90;;;;;;5072904;28;20029;-49
2021/12/15 09:08:39;;;;;;;0.00;0.00;;;6.90;99.90;;;;;;5074524;28;20203;-50
2021/12/15 09:11:08;;;;;;;0.00;0.00;;;6.90;99.90;;;;;;5075181;28;20302;-50
2021/12/15 09:13:34;;;;;;;0.00;0.00;;;6.80;99.90;;;;;;5074862;28;20032;-50
2021/12/15 09:16:07;;;;;;;0.00;0.00;;;6.80;99.90;;;;;;5074730;28;20046;-48
2021/12/15 09:18:33;;;;;;;5.38;1.75;;;6.80;99.90;;;;;;5074647;28;20077;-49
2021/12/15 09:21:00;;;;;;;13.65;12.40;;;6.90;99.90;;;;;;5074414;28;20467;-48
2021/12/15 09:23:26;;;;;;;0.00;0.00;;;6.80;99.90;;;;;;5074082;28;20029;-49
2021/12/15 09:25:52;;;;;;;0.00;0.00;;;6.90;99.90;;;;;;5074386;28;20035;-48
2021/12/15 09:28:19;;;;;;;0.00;0.00;;;6.80;99.90;;;;;;5074777;28;20408;-47
2021/12/15 09:30:47;;;;;;;2.60;1.55;;;6.80;99.90;;;;;;5074394;28;20024;-52
2021/12/15 09:33:19;;;;;;;0.00;0.00;;;6.80;99.90;;;;;;5073914;28;20077;-52
2021/12/15 09:35:45;;;;;;;7.47;5.28;;;6.80;99.90;;;;;;5072633;28;20459;-50
2021/12/15 09:38:12;;;;;;;0.00;0.00;;;6.80;99.90;;;;;;5074186;28;20020;-52
2021/12/15 09:40:39;;;;;;;0.00;0.00;;;6.90;99.90;;;;;;5074067;28;20032;-49
2021/12/15 09:43:06;;;;;;;0.00;0.00;;;6.90;99.90;;;;;;5073404;28;20498;-53
2021/12/15 10:17:51;;;;;;;6.22;5.57;;;6.90;99.90;;;;;;5072771;28;20099;-51
2021/12/15 10:20:21;;;;;;;0.20;0.20;;;6.90;99.90;;;;;;5073504;28;20060;-53
2021/12/15 10:22:51;;;;;;;0.00;0.00;;;7.00;99.90;;;;;;5071855;28;20029;-47
2021/12/15 10:25:26;;;;;;;0.63;0.63;;;6.80;99.90;;;;;;5073356;28;20343;-46
2021/12/15 10:28:04;;;;;;;0.00;0.00;;;6.80;99.90;;;;;;5073650;28;20059;-47
2021/12/15 10:30:31;;;;;;;0.00;0.00;;;6.70;99.90;;;;;;5073089;28;20111;-47
2021/12/15 10:32:56;;;;;;;0.30;0.30;;;6.70;99.90;;;;;;5073445;28;20024;-53
2021/12/15 10:35:27;;;;;;;0.00;0.00;;;6.80;99.90;;;;;;5072622;28;20126;-49
2021/12/15 10:38:10;;;;;;;0.00;0.00;;;6.80;99.90;;;;;;5072737;28;20024;-51
2021/12/15 10:40:48;;;;;;;0.00;0.00;;;6.70;99.90;;;;;;5073176;28;20558;-48
2021/12/15 10:43:14;;;;;;;0.77;0.77;;;6.70;99.90;;;;;;5072836;28;20040;-48
2021/12/15 10:45:45;;;;;;;5.00;3.70;;;6.60;99.90;;;;;;5073058;28;20428;-47
2021/12/15 10:48:23;;;;;;;12.75;10.27;;;6.60;99.90;;;;;;5073006;28;20040;-48
2021/12/15 10:50:49;;;;;;;0.00;0.00;;;6.70;99.90;;;;;;5055196;28;20032;-52
2021/12/15 10:53:27;;;;;;;0.00;0.00;;;6.70;99.90;;;;;;5072873;28;20104;-50
2021/12/15 10:55:53;;;;;;;0.00;0.00;;;6.70;99.90;;;;;;5072866;28;20451;-48
2021/12/15 10:58:38;;;;;;;4.90;4.47;;;6.80;99.90;;;;;;5072895;28;20038;-48
2021/12/15 11:01:26;;;;;;;0.00;0.00;;;6.90;99.90;;;;;;5072368;28;20020;-49
2021/12/15 11:03:51;;;;;;;0.00;0.00;;;6.80;99.90;;;;;;5071095;28;20069;-48
2021/12/15 11:06:20;;;;;;;3.30;1.20;;;6.80;99.90;;;;;;5072389;28;20031;-50
2021/12/15 11:08:47;;;;;;;0.20;0.20;;;6.80;99.90;;;;;;5072662;28;20032;-54
2021/12/15 11:11:29;;;;;;;0.00;0.00;;;6.80;99.90;;;;;;5072679;28;20040;-49
2021/12/15 11:13:55;;;;;;;2.28;0.98;;;6.70;99.90;;;;;;5072483;28;20479;-50
2021/12/15 11:16:30;;;;;;;0.25;0.25;;;6.70;99.90;;;;;;5072818;28;20039;-50
2021/12/15 11:18:58;;;;;;;0.80;0.28;;;6.70;99.90;;;;;;5072503;28;20401;-52
2021/12/15 11:21:31;;;;;;;0.00;0.00;;;6.80;99.90;;;;;;5072351;28;20386;-51
2021/12/15 11:23:57;;;;;;;0.00;0.00;;;6.90;99.90;;;;;;5072424;28;20052;-48
2021/12/15 11:26:23;;;;;;;0.00;0.00;;;6.90;99.90;;;;;;5072501;28;20360;-51
2021/12/15 11:28:51;;;;;;;0.00;0.00;;;6.90;99.90;;;;;;5072701;28;20020;-49
2021/12/15 11:31:26;;;;;;;3.10;0.90;;;6.90;99.90;;;;;;5076497;28;20028;-49
2021/12/15 11:34:00;;;;;;;0.00;0.00;;;7.00;99.90;;;;;;5076360;28;20032;-49
2021/12/15 11:36:32;;;;;;;13.02;3.75;;;6.90;99.90;;;;;;5076342;28;20028;-52
2021/12/15 11:39:13;;;;;;;0.30;0.30;;;6.90;99.90;;;;;;5076309;28;20094;-49
2021/12/15 11:41:42;;;;;;;0.00;0.00;;;6.80;99.90;;;;;;5058760;28;20424;-48
2021/12/15 11:44:14;;;;;;;0.00;0.00;;;6.80;99.90;;;;;;5076248;28;20067;-48
2021/12/15 11:46:49;;;;;;;32.72;4.90;;;6.80;99.90;;;;;;5075924;28;20364;-49
2021/12/15 11:49:22;;;;;;;0.00;0.00;;;6.90;99.90;;;;;;5076223;28;20082;-51
2021/12/15 11:52:09;;;;;;;0.00;0.00;;;6.90;99.90;;;;;;5076511;28;20420;-49
2021/12/15 11:54:42;;;;;;;0.00;0.00;;;6.90;99.90;;;;;;5076363;28;20036;-48
2021/12/15 11:57:18;;;;;;;1.25;1.23;;;7.00;99.90;;;;;;5076051;28;20478;-52
2021/12/15 11:59:49;;;;;;;0.38;0.38;;;6.90;99.90;;;;;;5075779;28;20021;-49
2021/12/15 12:02:55;;;;;;;0.00;0.00;;;7.00;99.90;;;;;;5075760;28;20021;-52
2021/12/15 12:05:37;;;;;;;1.80;1.65;;;7.10;99.90;;;;;;5013328;28;20053;-48
2021/12/15 12:08:10;;;;;;;0.00;0.00;;;7.10;99.90;;;;;;5013753;28;20033;-53
2021/12/15 12:10:46;;;;;;;0.00;0.00;;;7.20;99.90;;;;;;5053403;28;20069;-52
2021/12/15 12:13:27;;;;;;;0.00;0.00;;;7.20;99.90;;;;;;5057770;28;20024;-46
2021/12/15 12:16:02;;;;;;;8.67;7.47;;;7.20;99.90;;;;;;5075900;28;20024;-49
2021/12/15 12:18:30;;;;;;;0.98;0.90;;;7.10;99.90;;;;;;5075254;28;20047;-49
2021/12/15 12:21:02;;;;;;;0.00;0.00;;;7.20;99.90;;;;;;5075304;28;20146;-50
2021/12/15 12:23:30;;;;;;;11.80;10.95;;;7.20;99.90;;;;;;5075436;28;20039;-48
2021/12/15 12:26:03;;;;;;;0.00;0.00;;;7.20;99.90;;;;;;5075540;28;20125;-50
2021/12/15 12:28:35;;;;;;;0.00;0.00;;;7.10;99.90;;;;;;5075142;28;20490;-49
2021/12/15 12:31:08;;;;;;;0.10;0.10;;;7.20;99.90;;;;;;5057638;28;20025;-49
2021/12/15 12:33:34;;;;;;;0.00;0.00;;;7.20;99.90;;;;;;5075345;28;20107;-51
2021/12/15 12:36:31;;;;;;;0.00;0.00;;;7.20;99.90;;;;;;5057209;28;20067;-50
2021/12/15 12:39:08;;;;;;;0.00;0.00;;;7.20;99.90;;;;;;5074241;28;20063;-49
2021/12/15 12:41:43;;;;;;;4.35;3.92;;;7.20;99.90;;;;;;5074793;28;20095;-47
2021/12/15 12:44:12;;;;;;;1.45;1.30;;;7.20;99.90;;;;;;5074965;28;20186;-49
2021/12/15 12:46:49;;;;;;;0.00;0.00;;;7.20;99.90;;;;;;5073971;28;20039;-47
2021/12/15 12:49:58;;;;;;;0.00;0.00;;;7.30;99.90;;;;;;5074871;28;20025;-50
2021/12/15 13:00:49;;;;;;;0.00;0.00;;;7.20;99.90;;;;;;5074630;28;20032;-50
2021/12/15 13:03:18;;;;;;;0.00;0.00;;;7.20;99.90;;;;;;5074109;28;20040;-46
2021/12/15 13:06:02;;;;;;;0.00;0.00;;;7.20;99.90;;;;;;5073501;28;20100;-49
2021/12/15 13:08:48;;;;;;;0.00;0.00;;;7.10;99.90;;;;;;5074821;28;20498;-50
2021/12/15 13:11:20;;;;;;;0.57;0.57;;;7.00;99.90;;;;;;5074802;28;20546;-51
2021/12/15 13:13:55;;;;;;;0.10;0.10;;;7.00;99.90;;;;;;5074280;28;20029;-52
2021/12/15 13:16:44;;;;;;;0.00;0.00;;;7.10;99.90;;;;;;5074915;28;20032;-49
2021/12/15 13:19:10;;;;;;;1.33;1.23;;;7.20;99.90;;;;;;5074314;28;20028;-52
2021/12/15 13:21:49;;;;;;;7.38;6.90;;;7.10;99.90;;;;;;5074088;28;20444;-50
2021/12/15 13:28:42;;;;;;;0.13;0.13;;;7.20;99.90;;;;;;5074461;28;20024;-50
2021/12/15 13:30:27;;;;;;;0.00;0.00;;;7.00;99.90;;;;;;5074241;28;20094;-48
2021/12/15 13:33:00;;;;;;;7.00;2.03;;;7.10;99.90;;;;;;5072849;28;20115;-52
2021/12/15 13:35:27;;;;;;;0.00;0.00;;;7.10;99.90;;;;;;5074061;28;20020;-51
2021/12/15 13:37:55;;;;;;;0.00;0.00;;;7.20;99.90;;;;;;5074181;28;20020;-49
2021/12/15 13:40:50;;;;;;;0.00;0.00;;;7.10;99.90;;;;;;5074328;28;20024;-51
2021/12/15 13:43:35;;;;;;;1.50;1.40;;;7.00;99.90;;;;;;5051270;28;20471;-51
2021/12/15 13:46:01;;;;;;;0.52;0.52;;;7.00;99.90;;;;;;5074010;28;20025;-51
2021/12/15 13:48:57;;;;;;;0.00;0.00;;;6.90;99.90;;;;;;5073782;28;20027;-48
2021/12/15 13:51:51;;;;;;;0.00;0.00;;;6.90;99.90;;;;;;5073130;28;20490;-48
2021/12/15 13:54:40;;;;;;;0.00;0.00;;;6.90;99.90;;;;;;5073270;28;20214;-49
2021/12/15 13:57:14;;;;;;;0.00;0.00;;;6.90;99.90;;;;;;5062483;28;20487;-48
2021/12/15 13:59:55;;;;;;;0.00;0.00;;;6.90;99.90;;;;;;5073620;28;20024;-46
2021/12/15 14:02:36;;;;;;;0.00;0.00;;;6.90;99.90;;;;;;5073746;28;20024;-48
2021/12/15 14:05:28;;;;;;;0.25;0.25;;;6.90;99.90;;;;;;5073445;28;20776;-48
2021/12/15 14:08:11;;;;;;;0.00;0.00;;;7.00;99.90;;;;;;5073021;28;20043;-52
2021/12/15 14:11:07;;;;;;;0.00;0.00;;;6.90;99.90;;;;;;5073862;28;20108;-50
2021/12/15 14:13:41;;;;;;;0.00;0.00;;;6.90;99.90;;;;;;5070375;28;20059;-50
2021/12/15 14:16:07;;;;;;;0.00;0.00;;;6.80;99.90;;;;;;5073063;28;20074;-51
2021/12/15 14:18:34;;;;;;;0.08;0.08;;;6.90;99.90;;;;;;5055236;28;20029;-50
2021/12/15 14:21:02;;;;;;;0.10;0.10;;;6.90;99.90;;;;;;5072851;28;20021;-49
2021/12/15 14:23:28;;;;;;;0.00;0.00;;;6.90;99.90;;;;;;5072741;28;20037;-48
2021/12/15 14:25:57;;;;;;;0.00;0.00;;;6.90;99.90;;;;;;5073023;28;20135;-49
2021/12/15 14:28:39;;;;;;;0.80;0.80;;;6.90;99.90;;;;;;5072754;28;20040;-50
2021/12/15 14:31:15;;;;;;;0.00;0.00;;;6.90;99.90;;;;;;5072404;28;20373;-52
2021/12/15 14:33:49;;;;;;;0.00;0.00;;;6.90;99.90;;;;;;5072647;28;20034;-48
2021/12/15 14:36:19;;;;;;;0.00;0.00;;;6.80;99.90;;;;;;5072308;28;20063;-49
2021/12/15 14:38:52;;;;;;;0.00;0.00;;;6.90;99.90;;;;;;5072418;28;20025;-50
2021/12/15 14:41:38;;;;;;;5.25;4.85;;;6.90;99.90;;;;;;5054651;28;20119;-49
2021/12/15 14:44:09;;;;;;;0.00;0.00;;;6.90;99.90;;;;;;5073167;28;20035;-51
2021/12/15 14:46:56;;;;;;;0.00;0.00;;;6.90;99.90;;;;;;5072390;28;20474;-49